Terminal Aerodrome Forecast
Issued by NWS

Home | Current Version | Previous Version | Text Only | Print | Product List | Glossary On
Versions: 1 2 3 4 5 6 7 8 9 10 11 12 13 14 15 16 17 18
000
FTUS42 KTBW 262354
TAFPIE
TAF
KPIE 262354Z 2700/2724 22015G24KT P6SM SHRA SCT012 BKN100
      TEMPO 2700/2703 25020G30KT 5SM TSRA BKN012 BKN035CB
     FM270400 21006KT P6SM SCT015 BKN100
     FM271000 21010KT P6SM SHRA VCTS BKN020CB BKN040
     FM271700 25015G23KT P6SM BKN020 BKN035=

USA.gov is the U.S. government's official web portal to all federal, state and local government web resources and services.